createdAt,value
2023-03-02T00:01:35.522Z,99207.00
2023-03-02T00:04:03.839Z,99215.34
2023-03-02T00:06:31.813Z,99206.69
2023-03-02T00:09:00.875Z,99205.88
2023-03-02T00:11:30.610Z,99214.28
2023-03-02T00:13:58.103Z,99210.22
2023-03-02T00:16:25.176Z,99211.22
2023-03-02T00:18:52.324Z,99207.91
2023-03-02T00:21:19.233Z,99209.66
2023-03-02T00:23:46.174Z,99208.31
2023-03-02T00:26:13.142Z,99210.72
2023-03-02T00:28:40.797Z,99209.41
2023-03-02T00:31:07.699Z,99210.72
2023-03-02T00:33:34.831Z,99226.09
2023-03-02T00:36:03.093Z,99233.25
2023-03-02T00:38:30.307Z,99233.78
2023-03-02T00:40:57.177Z,99231.97
2023-03-02T00:43:28.082Z,99237.75
2023-03-02T00:45:55.634Z,99243.53
2023-03-02T00:48:23.294Z,99252.06
2023-03-02T00:50:50.497Z,99258.44
2023-03-02T00:53:18.225Z,99266.97
2023-03-02T00:55:56.150Z,99261.94
2023-03-02T00:58:26.618Z,99259.13
2023-03-02T01:00:54.692Z,99257.31
2023-03-02T01:03:22.042Z,99264.69
2023-03-02T01:05:49.610Z,99259.94
2023-03-02T01:08:16.612Z,99257.41
2023-03-02T01:10:43.564Z,99262.19
2023-03-02T01:13:10.615Z,99253.22
2023-03-02T01:15:37.652Z,99253.69
2023-03-02T01:18:04.659Z,99271.69
2023-03-02T01:20:31.795Z,99264.44
2023-03-02T01:22:58.763Z,99268.81
2023-03-02T01:25:25.852Z,99272.13
2023-03-02T01:27:52.896Z,99277.09
2023-03-02T01:30:20.217Z,99275.25
2023-03-02T01:32:47.211Z,99272.53
2023-03-02T01:35:14.312Z,99268.88
2023-03-02T01:37:41.485Z,99250.06
2023-03-02T01:40:09.586Z,99251.19
2023-03-02T01:42:45.944Z,99244.03
2023-03-02T01:45:43.955Z,99248.41
2023-03-02T01:48:12.806Z,99267.63
2023-03-02T01:50:40.190Z,99276.44
2023-03-02T01:53:08.670Z,99278.41
2023-03-02T01:55:39.086Z,99283.50
2023-03-02T01:58:06.891Z,99286.00
2023-03-02T02:00:38.104Z,99283.38
2023-03-02T02:03:22.434Z,99296.03
2023-03-02T02:06:31.601Z,99295.25
2023-03-02T02:09:01.286Z,99284.84
2023-03-02T02:11:28.536Z,99287.88
2023-03-02T02:13:59.481Z,99284.25
2023-03-02T02:16:33.128Z,99294.94
2023-03-02T02:19:01.773Z,99299.53
2023-03-02T02:21:29.254Z,99290.28
2023-03-02T02:24:15.095Z,99296.75
2023-03-02T02:26:46.568Z,99280.50
2023-03-02T02:29:30.457Z,99284.84
2023-03-02T02:32:02.689Z,99279.44
2023-03-02T02:34:32.379Z,99292.09
2023-03-02T02:37:07.831Z,99303.78
2023-03-02T02:39:41.464Z,99306.94
2023-03-02T02:42:18.188Z,99311.22
2023-03-02T02:44:45.469Z,99301.44
2023-03-02T02:47:21.782Z,99312.66
2023-03-02T02:49:52.493Z,99307.69
2023-03-02T02:52:24.224Z,99311.44
2023-03-02T02:54:54.036Z,99319.66
2023-03-02T02:57:24.711Z,99320.16
2023-03-02T02:59:56.040Z,99325.06
2023-03-02T03:02:26.440Z,99327.84
2023-03-02T03:05:03.004Z,99330.56
2023-03-02T03:07:33.051Z,99333.56
2023-03-02T03:10:05.974Z,99317.00
2023-03-02T03:12:34.542Z,99345.84
2023-03-02T03:15:03.468Z,99342.69
2023-03-02T03:17:31.848Z,99341.66
2023-03-02T03:20:06.748Z,99336.75
2023-03-02T03:22:38.610Z,99349.22
2023-03-02T03:25:07.952Z,99330.63
2023-03-02T03:27:35.188Z,99326.56
2023-03-02T03:30:04.329Z,99326.09
2023-03-02T03:32:35.595Z,99326.97
2023-03-02T03:35:08.606Z,99334.13
2023-03-02T03:37:36.859Z,99336.81
2023-03-02T03:40:05.875Z,99331.06
2023-03-02T03:42:33.584Z,99330.03
2023-03-02T03:45:01.480Z,99322.50
2023-03-02T03:47:30.538Z,99314.53
2023-03-02T03:49:57.521Z,99318.25
2023-03-02T03:52:30.890Z,99315.63
2023-03-02T03:55:07.074Z,99309.56
2023-03-02T03:57:34.780Z,99297.88
2023-03-02T04:00:02.031Z,99322.34
2023-03-02T04:02:31.980Z,99323.31
2023-03-02T04:05:06.452Z,99324.91
2023-03-02T04:07:34.417Z,99323.25
2023-03-02T04:10:04.187Z,99328.88
2023-03-02T04:12:38.368Z,99332.28
2023-03-02T04:15:08.478Z,99325.19
2023-03-02T04:17:35.913Z,99325.34
2023-03-02T04:20:07.735Z,99330.47
2023-03-02T04:22:35.732Z,99340.63
2023-03-02T04:25:03.342Z,99323.28
2023-03-02T04:27:37.933Z,99334.50
2023-03-02T04:30:05.974Z,99335.31
2023-03-02T04:32:33.099Z,99336.72
2023-03-02T04:35:00.494Z,99342.66
2023-03-02T04:37:29.971Z,99354.84
2023-03-02T04:39:57.498Z,99356.88
2023-03-02T04:42:24.510Z,99366.72
2023-03-02T04:44:51.513Z,99370.44
2023-03-02T04:47:18.528Z,99383.59
2023-03-02T04:49:45.440Z,99389.19
2023-03-02T04:52:12.583Z,99391.31
2023-03-02T04:54:39.558Z,99394.63
2023-03-02T04:57:08.539Z,99384.25
2023-03-02T04:59:35.609Z,99384.38
2023-03-02T05:02:02.934Z,99407.16
2023-03-02T05:04:30.550Z,99397.97
2023-03-02T05:06:58.158Z,99403.22
2023-03-02T05:09:30.931Z,99410.22
2023-03-02T05:12:00.738Z,99414.72
2023-03-02T05:14:28.411Z,99421.22
2023-03-02T05:16:55.644Z,99414.81
2023-03-02T05:19:22.710Z,99421.47
2023-03-02T05:21:49.982Z,99419.22
2023-03-02T05:24:17.036Z,99418.00
2023-03-02T05:26:44.154Z,99420.41
2023-03-02T05:29:11.153Z,99423.53
2023-03-02T05:31:41.303Z,99420.19
2023-03-02T05:34:10.877Z,99427.97
2023-03-02T05:36:38.637Z,99422.53
2023-03-02T05:39:07.188Z,99431.97
2023-03-02T05:41:35.868Z,99429.25
2023-03-02T05:44:03.114Z,99430.19
2023-03-02T05:46:30.128Z,99430.72
2023-03-02T05:48:57.201Z,99432.47
2023-03-02T05:51:24.225Z,99421.69
2023-03-02T05:53:51.265Z,99427.72
2023-03-02T05:56:20.521Z,99425.78
2023-03-02T05:58:47.467Z,99434.72
2023-03-02T06:01:15.549Z,99440.97
2023-03-02T06:03:43.544Z,99428.78
2023-03-02T06:06:14.349Z,99436.53
2023-03-02T06:08:42.927Z,99450.47
2023-03-02T06:11:10.644Z,99452.28
2023-03-02T06:13:38.101Z,99453.03
2023-03-02T06:16:05.594Z,99440.00
2023-03-02T06:18:32.699Z,99446.63
2023-03-02T06:21:00.178Z,99450.31
2023-03-02T06:23:27.126Z,99456.28
2023-03-02T06:25:54.271Z,99448.19
2023-03-02T06:28:22.094Z,99439.75
2023-03-02T06:30:49.986Z,99438.94
2023-03-02T06:33:19.106Z,99434.50
2023-03-02T06:35:46.415Z,99431.47
2023-03-02T06:38:13.720Z,99416.97
2023-03-02T06:40:40.608Z,99430.47
2023-03-02T06:43:07.501Z,99430.88
2023-03-02T06:45:34.707Z,99420.22
2023-03-02T06:48:02.503Z,99424.84
2023-03-02T06:50:29.618Z,99421.63
2023-03-02T06:52:56.923Z,99414.81
2023-03-02T06:55:23.984Z,99402.81
2023-03-02T06:57:51.022Z,99400.97
2023-03-02T07:00:25.970Z,99395.59
2023-03-02T07:02:53.820Z,99404.81
2023-03-02T07:05:21.594Z,99404.41
2023-03-02T07:07:48.565Z,99402.69
2023-03-02T07:10:15.803Z,99400.81
2023-03-02T07:12:43.250Z,99399.78
2023-03-02T07:15:12.385Z,99407.94
2023-03-02T07:17:40.754Z,99408.22
2023-03-02T07:20:09.104Z,99404.22
2023-03-02T07:22:36.791Z,99403.00
2023-03-02T07:25:04.209Z,99402.28
2023-03-02T07:27:31.522Z,99402.81
2023-03-02T07:29:58.494Z,99404.56
2023-03-02T07:32:26.083Z,99402.41
2023-03-02T07:34:53.301Z,99399.00
2023-03-02T07:37:20.348Z,99400.84
2023-03-02T07:39:49.107Z,99403.63
2023-03-02T07:42:17.193Z,99390.69
2023-03-02T07:44:48.020Z,99408.47
2023-03-02T07:47:15.061Z,99401.22
2023-03-02T07:49:42.124Z,99406.72
2023-03-02T07:52:09.124Z,99406.91
2023-03-02T07:54:36.265Z,99414.00
2023-03-02T07:57:03.444Z,99416.09
2023-03-02T07:59:30.533Z,99418.97
2023-03-02T08:01:57.934Z,99409.78
2023-03-02T08:04:26.006Z,99391.22
2023-03-02T08:06:53.181Z,99394.16
2023-03-02T08:09:20.140Z,99392.69
2023-03-02T08:11:47.995Z,99387.81
2023-03-02T08:14:15.051Z,99388.00
2023-03-02T08:16:42.285Z,99381.09
2023-03-02T08:19:09.529Z,99375.78
2023-03-02T08:21:36.543Z,99364.38
2023-03-02T08:24:04.209Z,99371.66
2023-03-02T08:26:31.227Z,99359.50
2023-03-02T08:28:59.222Z,99365.09
2023-03-02T08:31:27.061Z,99366.13
2023-03-02T08:33:54.337Z,99375.56
2023-03-02T08:36:21.915Z,99371.31
2023-03-02T08:38:49.729Z,99374.91
2023-03-02T08:41:33.431Z,99373.00
2023-03-02T08:44:10.383Z,99366.06
2023-03-02T08:46:37.980Z,99369.13
2023-03-02T08:49:08.468Z,99367.41
2023-03-02T08:51:42.768Z,99379.38
2023-03-02T08:54:10.693Z,99373.28
2023-03-02T08:56:39.648Z,99376.97
2023-03-02T08:59:13.051Z,99372.81
2023-03-02T09:01:41.332Z,99378.53
2023-03-02T09:04:10.605Z,99369.31
2023-03-02T09:06:41.002Z,99377.16
2023-03-02T09:09:09.920Z,99376.72
2023-03-02T09:11:37.044Z,99382.56
2023-03-02T09:14:04.374Z,99377.63
2023-03-02T09:16:31.998Z,99379.28
2023-03-02T09:18:59.151Z,99374.50
2023-03-02T09:21:26.702Z,99365.09
2023-03-02T09:23:55.920Z,99360.91
2023-03-02T09:26:23.247Z,99369.88
2023-03-02T09:28:50.218Z,99360.84
2023-03-02T09:31:17.331Z,99358.97
2023-03-02T09:33:44.953Z,99361.94
2023-03-02T09:36:18.896Z,99366.50
2023-03-02T09:38:46.022Z,99353.81
2023-03-02T09:41:21.818Z,99339.56
2023-03-02T09:44:26.041Z,99338.47
2023-03-02T09:47:00.225Z,99321.44
2023-03-02T09:49:29.878Z,99330.97
2023-03-02T09:52:21.516Z,99333.78
2023-03-02T09:54:48.574Z,99328.78
2023-03-02T09:57:31.447Z,99324.53
2023-03-02T10:00:18.550Z,99325.97
2023-03-02T10:02:54.727Z,99310.50
2023-03-02T10:05:27.500Z,99322.91
2023-03-02T10:07:54.803Z,99316.44
2023-03-02T10:10:34.524Z,99302.28
2023-03-02T10:13:20.139Z,99305.59
2023-03-02T10:16:02.924Z,99299.09
2023-03-02T10:18:29.824Z,99292.47
2023-03-02T10:21:04.169Z,99294.53
2023-03-02T10:23:49.591Z,99290.38
2023-03-02T10:26:35.146Z,99280.09
2023-03-02T10:29:37.581Z,99260.94
2023-03-02T10:32:25.269Z,99278.72
2023-03-02T10:34:53.860Z,99275.69
2023-03-02T10:37:25.538Z,99274.69
2023-03-02T10:39:52.946Z,99270.81
2023-03-02T10:42:23.152Z,99256.06
2023-03-02T10:44:56.999Z,99258.03
2023-03-02T10:47:27.465Z,99261.22
2023-03-02T10:49:56.176Z,99258.44
2023-03-02T10:52:28.447Z,99253.56
2023-03-02T10:55:14.714Z,99249.44
2023-03-02T10:57:46.313Z,99246.09
2023-03-02T11:00:16.498Z,99249.09
2023-03-02T11:03:01.840Z,99238.59
2023-03-02T11:05:32.007Z,99231.34
2023-03-02T11:08:04.633Z,99227.81
2023-03-02T11:10:36.749Z,99230.25
2023-03-02T11:13:17.503Z,99225.31
2023-03-02T11:15:51.107Z,99230.91
2023-03-02T11:18:37.096Z,99215.63
2023-03-02T11:21:14.036Z,99203.88
2023-03-02T11:24:02.328Z,99195.53
2023-03-02T11:26:33.012Z,99188.00
2023-03-02T11:29:18.334Z,99184.25
2023-03-02T11:31:56.739Z,99182.56
2023-03-02T11:34:51.530Z,99169.25
2023-03-02T11:37:24.440Z,99177.41
2023-03-02T11:40:00.174Z,99167.81
2023-03-02T11:42:34.457Z,99167.09
2023-03-02T11:45:18.400Z,99167.41
2023-03-02T11:48:03.821Z,99162.84
2023-03-02T11:50:34.599Z,99169.34
2023-03-02T11:53:07.059Z,99108.31
2023-03-02T11:55:44.855Z,99154.59
2023-03-02T11:58:18.964Z,99158.25
2023-03-02T12:00:47.812Z,99157.59
2023-03-02T12:03:14.777Z,99172.66
2023-03-02T12:05:44.824Z,99163.88
2023-03-02T12:08:21.010Z,99158.31
2023-03-02T12:11:03.691Z,99145.50
2023-03-02T12:13:30.643Z,99155.09
2023-03-02T12:15:58.298Z,99149.03
2023-03-02T12:18:25.111Z,99139.75
2023-03-02T12:21:02.648Z,99147.50
2023-03-02T12:23:31.707Z,99141.16
2023-03-02T12:26:21.287Z,99136.97
2023-03-02T12:29:05.420Z,99116.34
2023-03-02T12:31:52.243Z,99134.31
2023-03-02T12:34:36.339Z,99125.28
2023-03-02T12:37:08.419Z,99120.59
2023-03-02T12:39:54.044Z,99113.97
2023-03-02T12:42:47.669Z,99118.41
2023-03-02T12:45:55.735Z,99118.81
2023-03-02T12:48:25.182Z,99113.88
2023-03-02T12:50:56.858Z,99103.50
2023-03-02T12:53:23.855Z,99092.91
2023-03-02T12:55:50.807Z,99093.19
2023-03-02T12:58:21.505Z,99091.53
2023-03-02T13:01:00.198Z,99078.56
2023-03-02T13:03:30.316Z,99072.28
2023-03-02T13:06:11.858Z,99073.22
2023-03-02T13:08:39.003Z,99065.28
2023-03-02T13:11:06.237Z,99063.00
2023-03-02T13:13:33.166Z,99052.50
2023-03-02T13:16:05.362Z,99044.88
2023-03-02T13:18:34.727Z,99037.78
2023-03-02T13:21:04.444Z,99032.88
2023-03-02T13:23:33.608Z,99035.56
2023-03-02T13:26:03.711Z,99039.44
2023-03-02T13:28:31.701Z,99041.09
2023-03-02T13:31:05.239Z,99036.97
2023-03-02T13:33:36.281Z,99029.16
2023-03-02T13:36:04.131Z,99021.13
2023-03-02T13:38:38.067Z,99008.75
2023-03-02T13:41:05.656Z,99005.31
2023-03-02T13:43:39.902Z,99001.25
2023-03-02T13:46:16.200Z,99004.13
2023-03-02T13:49:10.795Z,99001.97
2023-03-02T13:51:47.828Z,98992.72
2023-03-02T13:54:42.503Z,98987.13
2023-03-02T13:57:18.900Z,98984.03
2023-03-02T13:59:45.897Z,98974.63
2023-03-02T14:02:28.036Z,98962.78
2023-03-02T14:04:55.478Z,98960.09
2023-03-02T14:07:22.448Z,98962.19
2023-03-02T14:09:49.692Z,98956.44
2023-03-02T14:12:25.482Z,98957.03
2023-03-02T14:14:54.682Z,98962.63
2023-03-02T14:17:24.781Z,98951.78
2023-03-02T14:19:53.094Z,98938.59
2023-03-02T14:22:21.006Z,98932.44
2023-03-02T14:24:48.503Z,98943.06
2023-03-02T14:27:16.961Z,98933.75
2023-03-02T14:29:46.084Z,98922.25
2023-03-02T14:32:14.656Z,98923.47
2023-03-02T14:34:42.248Z,98918.34
2023-03-02T14:37:14.226Z,98926.38
2023-03-02T14:39:48.293Z,98918.56
2023-03-02T14:42:17.399Z,98921.22
2023-03-02T14:44:46.175Z,98907.25
2023-03-02T14:47:14.110Z,98901.31
2023-03-02T14:49:41.050Z,98905.09
2023-03-02T14:52:14.386Z,98893.97
2023-03-02T14:54:46.441Z,98892.09
2023-03-02T14:57:18.911Z,98890.97
2023-03-02T14:59:45.985Z,98885.00
2023-03-02T15:02:24.942Z,98883.47
2023-03-02T15:04:56.164Z,98874.41
2023-03-02T15:07:26.114Z,98868.28
2023-03-02T15:09:53.173Z,98873.16
2023-03-02T15:12:20.125Z,98867.63
2023-03-02T15:14:47.130Z,98880.78
2023-03-02T15:17:14.172Z,98871.84
2023-03-02T15:19:41.173Z,98873.72
2023-03-02T15:22:08.325Z,98868.47
2023-03-02T15:24:35.202Z,98879.25
2023-03-02T15:27:02.191Z,98871.66
2023-03-02T15:29:29.150Z,98873.72
2023-03-02T15:31:56.217Z,98872.16
2023-03-02T15:34:23.247Z,98863.09
2023-03-02T15:36:50.220Z,98871.25
2023-03-02T15:39:17.355Z,98860.22
2023-03-02T15:41:44.698Z,98876.38
2023-03-02T15:44:22.493Z,98872.75
2023-03-02T15:46:57.891Z,98868.19
2023-03-02T15:49:28.483Z,98873.25
2023-03-02T15:51:57.719Z,98877.81
2023-03-02T15:54:26.500Z,98880.69
2023-03-02T15:56:53.706Z,98876.69
2023-03-02T15:59:22.478Z,98867.28
2023-03-02T16:01:49.630Z,98873.66
2023-03-02T16:04:16.672Z,98861.56
2023-03-02T16:06:44.103Z,98867.22
2023-03-02T16:09:11.395Z,98872.34
2023-03-02T16:11:38.560Z,98868.31
2023-03-02T16:14:05.519Z,98870.78
2023-03-02T16:16:32.578Z,98861.16
2023-03-02T16:18:59.775Z,98858.50
2023-03-02T16:21:28.739Z,98867.31
2023-03-02T16:24:03.361Z,98861.66
2023-03-02T16:26:32.602Z,98862.38
2023-03-02T16:29:00.263Z,98866.09
2023-03-02T16:31:28.210Z,98867.13
2023-03-02T16:33:56.409Z,98857.25
2023-03-02T16:36:23.553Z,98855.91
2023-03-02T16:38:50.714Z,98855.06
2023-03-02T16:41:22.840Z,98861.56
2023-03-02T16:43:52.587Z,98860.78
2023-03-02T16:46:19.878Z,98853.75
2023-03-02T16:48:47.966Z,98853.97
2023-03-02T16:51:15.379Z,98846.56
2023-03-02T16:53:42.418Z,98852.53
2023-03-02T16:56:11.217Z,98846.16
2023-03-02T16:58:39.800Z,98844.31
2023-03-02T17:01:08.778Z,98839.16
2023-03-02T17:03:36.259Z,98837.13
2023-03-02T17:06:06.018Z,98848.63
2023-03-02T17:08:33.164Z,98838.03
2023-03-02T17:11:00.174Z,98832.78
2023-03-02T17:13:27.070Z,98830.53
2023-03-02T17:15:54.649Z,98825.69
2023-03-02T17:18:21.660Z,98827.84
2023-03-02T17:20:52.633Z,98831.97
2023-03-02T17:23:19.744Z,98838.53
2023-03-02T17:25:46.686Z,98830.72
2023-03-02T17:28:15.134Z,98828.44
2023-03-02T17:30:42.879Z,98829.00
2023-03-02T17:33:10.875Z,98824.34
2023-03-02T17:35:38.008Z,98832.66
2023-03-02T17:38:05.247Z,98819.41
2023-03-02T17:40:33.082Z,98820.03
2023-03-02T17:43:00.125Z,98820.53
2023-03-02T17:45:28.520Z,98819.00
2023-03-02T17:47:57.339Z,98816.53
2023-03-02T17:50:25.846Z,98820.44
2023-03-02T17:52:54.214Z,98825.16
2023-03-02T17:55:21.312Z,98830.41
2023-03-02T17:57:48.379Z,98824.34
2023-03-02T18:00:18.831Z,98818.38
2023-03-02T18:02:45.884Z,98826.19
2023-03-02T18:05:13.371Z,98822.09
2023-03-02T18:07:40.345Z,98835.03
2023-03-02T18:10:08.135Z,98823.59
2023-03-02T18:12:35.565Z,98834.91
2023-03-02T18:15:02.688Z,98822.56
2023-03-02T18:17:31.179Z,98822.75
2023-03-02T18:19:58.101Z,98819.06
2023-03-02T18:22:25.325Z,98805.81
2023-03-02T18:24:53.030Z,98813.34
2023-03-02T18:27:20.720Z,98800.88
2023-03-02T18:29:47.849Z,98805.00
2023-03-02T18:32:14.859Z,98806.41
2023-03-02T18:34:41.864Z,98802.19
2023-03-02T18:37:09.195Z,98800.66
2023-03-02T18:39:37.934Z,98803.13
2023-03-02T18:42:07.148Z,98798.59
2023-03-02T18:44:34.664Z,98799.81
2023-03-02T18:47:02.282Z,98795.69
2023-03-02T18:49:31.057Z,98793.06
2023-03-02T18:51:58.847Z,98805.22
2023-03-02T18:54:25.800Z,98793.75
2023-03-02T18:56:53.385Z,98785.63
2023-03-02T18:59:20.441Z,98800.63
2023-03-02T19:01:47.567Z,98792.00
2023-03-02T19:04:15.003Z,98791.56
2023-03-02T19:06:42.831Z,98792.22
2023-03-02T19:09:10.921Z,98801.75
2023-03-02T19:11:38.014Z,98800.03
2023-03-02T19:14:05.595Z,98792.59
2023-03-02T19:16:32.902Z,98783.97
2023-03-02T19:18:59.976Z,98788.03
2023-03-02T19:21:29.908Z,98787.81
2023-03-02T19:23:57.300Z,98782.34
2023-03-02T19:26:24.328Z,98775.88
2023-03-02T19:28:51.322Z,98776.72
2023-03-02T19:31:18.275Z,98775.88
2023-03-02T19:33:45.492Z,98778.75
2023-03-02T19:36:13.001Z,98778.75
2023-03-02T19:38:44.543Z,98776.97
2023-03-02T19:41:17.144Z,98781.97
2023-03-02T19:43:45.529Z,98774.25
2023-03-02T19:46:14.196Z,98774.97
2023-03-02T19:48:42.288Z,98775.66
2023-03-02T19:51:09.596Z,98771.25
2023-03-02T19:53:38.140Z,98766.81
2023-03-02T19:56:08.482Z,98770.97
2023-03-02T19:58:36.529Z,98767.94
2023-03-02T20:01:04.524Z,98750.16
2023-03-02T20:03:31.641Z,98766.38
2023-03-02T20:05:59.725Z,98766.59
2023-03-02T20:08:26.932Z,98758.28
2023-03-02T20:10:53.880Z,98761.56
2023-03-02T20:13:20.909Z,98755.47
2023-03-02T20:15:48.271Z,98755.59
2023-03-02T20:18:18.981Z,98747.66
2023-03-02T20:20:47.293Z,98743.53
2023-03-02T20:23:15.241Z,98747.44
2023-03-02T20:25:42.529Z,98735.34
2023-03-02T20:28:12.194Z,98730.34
2023-03-02T20:30:46.525Z,98735.97
2023-03-02T20:33:14.845Z,98736.03
2023-03-02T20:35:44.354Z,98729.13
2023-03-02T20:38:23.274Z,98725.63
2023-03-02T20:40:50.977Z,98720.81
2023-03-02T20:43:18.000Z,98720.25
2023-03-02T20:45:45.936Z,98714.09
2023-03-02T20:48:13.351Z,98719.34
2023-03-02T20:50:41.619Z,98716.56
2023-03-02T20:53:09.480Z,98722.84
2023-03-02T20:55:36.657Z,98717.03
2023-03-02T20:58:05.503Z,98716.59
2023-03-02T21:00:35.531Z,98718.66
2023-03-02T21:03:02.740Z,98717.72
2023-03-02T21:05:31.102Z,98719.16
2023-03-02T21:07:58.554Z,98715.53
2023-03-02T21:10:29.325Z,98717.06
2023-03-02T21:12:56.857Z,98711.69
2023-03-02T21:15:27.106Z,98707.03
2023-03-02T21:17:55.286Z,98702.56
2023-03-02T21:20:24.210Z,98693.91
2023-03-02T21:22:51.176Z,98700.19
2023-03-02T21:25:18.187Z,98688.94
2023-03-02T21:27:45.446Z,98693.81
2023-03-02T21:30:23.189Z,98691.25
2023-03-02T21:32:50.533Z,98698.09
2023-03-02T21:35:20.192Z,98694.22
2023-03-02T21:37:48.983Z,98686.94
2023-03-02T21:40:27.718Z,98690.44
2023-03-02T21:42:55.281Z,98688.50
2023-03-02T21:45:22.973Z,98686.66
2023-03-02T21:47:51.112Z,98680.28
2023-03-02T21:50:23.881Z,98676.50
2023-03-02T21:52:51.038Z,98678.47
2023-03-02T21:55:18.015Z,98679.00
2023-03-02T21:57:45.241Z,98682.00
2023-03-02T22:00:22.783Z,98681.78
2023-03-02T22:02:50.694Z,98677.78
2023-03-02T22:05:18.937Z,98666.22
2023-03-02T22:07:46.602Z,98676.06
2023-03-02T22:10:25.150Z,98673.72
2023-03-02T22:13:30.664Z,98669.72
2023-03-02T22:16:15.903Z,98658.72
2023-03-02T22:18:44.234Z,98663.25
2023-03-02T22:21:38.427Z,98643.38
2023-03-02T22:24:08.424Z,98649.84
2023-03-02T22:26:45.020Z,98641.53
2023-03-02T22:29:18.106Z,98641.03
2023-03-02T22:31:50.773Z,98640.41
2023-03-02T22:34:29.683Z,98635.59
2023-03-02T22:37:13.905Z,98635.31
2023-03-02T22:39:42.408Z,98637.50
2023-03-02T22:42:09.386Z,98633.59
2023-03-02T22:44:36.697Z,98638.34
2023-03-02T22:47:12.457Z,98640.41
2023-03-02T22:49:39.564Z,98637.94
2023-03-02T22:52:17.651Z,98636.50
2023-03-02T22:54:45.755Z,98631.78
2023-03-02T22:57:37.388Z,98644.81
2023-03-02T23:00:40.689Z,98631.97
2023-03-02T23:03:28.314Z,98633.03
2023-03-02T23:05:55.621Z,98633.63
2023-03-02T23:08:28.014Z,98628.28
2023-03-02T23:11:01.100Z,98626.13
2023-03-02T23:13:39.197Z,98620.34
2023-03-02T23:16:18.212Z,98615.09
2023-03-02T23:18:45.952Z,98625.25
2023-03-02T23:21:17.467Z,98613.38
2023-03-02T23:23:44.802Z,98604.53
2023-03-02T23:26:11.891Z,98603.91
2023-03-02T23:28:38.941Z,98596.47
2023-03-02T23:31:06.028Z,98599.84
2023-03-02T23:33:33.647Z,98593.94
2023-03-02T23:36:00.946Z,98597.72
2023-03-02T23:38:28.114Z,98591.19
2023-03-02T23:40:55.380Z,98593.06
2023-03-02T23:43:22.661Z,98580.25
2023-03-02T23:45:50.379Z,98572.06
2023-03-02T23:48:17.548Z,98574.31
2023-03-02T23:50:45.306Z,98570.25
2023-03-02T23:53:12.309Z,98570.00
2023-03-02T23:55:43.805Z,98566.97
2023-03-02T23:58:11.292Z,98560.91
